首页
METAR-TAF:

METAR-TAF

机场 :

大西洋城國際機場

大西洋城, 新泽西州, 美国

纬度: 39-27-53N, 经度: 074-35-12W, 海拔: 23米

当前天气观测

该预报发布于28分钟前的04:54 UTC
风速3节,风向
温度 8°C
湿度 93%
气压 1012 hPa
能見度: 1.2公里
阴天层高于200英尺
轻雾

METAR: KACY 260454Z 36003KT 3/4SM BR OVC002 08/07 A2987 RMK AO2 SLP115 T00830072 401000078

时间: 00:22 (05:22 UTC)

预报

该预报发布于2小时和42分钟前的02:40 UTC
预报有效从26日的 03点(UTC)到 26日的 24点(UTC)
风速3节,风向多变
能見度: 0.8公里
层高于200英尺
小毛毛雨, 雾
从 26日的 1400点(UTC)
风速4节,风向东转东北
能見度: 4.8公里
阴天层高于500英尺
轻雾
从 26日的 1700点(UTC)
风速8节,风向
能見度: 10公里
阴天层高于800英尺

TAF: KACY 260240Z 2603/2624 VRB03KT 1/2SM -DZ FG VV002 FM261400 07004KT 3SM BR OVC005 FM261700 09008KT P6SM OVC008

超过4000个机场的气象观测和天气预报(METAR&TAF报告)。

可查询的气象台以黄色和红色小点在地图上表示。

将鼠标移到小点上方,可查看气象台名称。

然后点击查看天气观测和预报。

如需切换地图:点击带黑十字的绿色按钮放大地图;点击带横线的绿色按钮缩小地图;或者点击绿色箭头查看邻近地区的地图。


METAR-TAF: